sensor_id;sensor_type;location;lat;lon;timestamp;pressure;altitude;pressure_sealevel;temperature;humidity
37610;BME280;23457;51.966;8.230;2023-07-29T00:01:20;100079.88;;;20.96;100.00
37610;BME280;23457;51.966;8.230;2023-07-29T00:03:47;100074.44;;;21.00;100.00
37610;BME280;23457;51.966;8.230;2023-07-29T00:06:14;100065.97;;;20.91;100.00
37610;BME280;23457;51.966;8.230;2023-07-29T00:08:41;100065.91;;;20.92;100.00
37610;BME280;23457;51.966;8.230;2023-07-29T00:11:07;100070.28;;;20.93;100.00
37610;BME280;23457;51.966;8.230;2023-07-29T00:13:34;100068.44;;;20.95;100.00
37610;BME280;23457;51.966;8.230;2023-07-29T00:16:00;100069.66;;;20.87;100.00
37610;BME280;23457;51.966;8.230;2023-07-29T00:18:27;100067.16;;;20.82;100.00
37610;BME280;23457;51.966;8.230;2023-07-29T00:20:54;100066.03;;;20.89;100.00
37610;BME280;23457;51.966;8.230;2023-07-29T00:23:20;100059.13;;;20.85;100.00
37610;BME280;23457;51.966;8.230;2023-07-29T00:25:47;100061.78;;;20.85;100.00
37610;BME280;23457;51.966;8.230;2023-07-29T00:28:14;100061.69;;;20.88;100.00
37610;BME280;23457;51.966;8.230;2023-07-29T00:30:41;100049.25;;;20.90;100.00
37610;BME280;23457;51.966;8.230;2023-07-29T00:33:08;100050.75;;;20.97;100.00
37610;BME280;23457;51.966;8.230;2023-07-29T00:35:35;100055.13;;;20.98;100.00
37610;BME280;23457;51.966;8.230;2023-07-29T00:38:01;100056.00;;;20.99;100.00
37610;BME280;23457;51.966;8.230;2023-07-29T00:40:28;100053.19;;;20.79;100.00
37610;BME280;23457;51.966;8.230;2023-07-29T00:42:56;100056.50;;;20.85;100.00
37610;BME280;23457;51.966;8.230;2023-07-29T00:45:24;100052.06;;;20.86;100.00
37610;BME280;23457;51.966;8.230;2023-07-29T00:47:52;100050.09;;;20.91;100.00
37610;BME280;23457;51.966;8.230;2023-07-29T00:50:18;100051.09;;;20.88;100.00
37610;BME280;23457;51.966;8.230;2023-07-29T00:52:45;100055.53;;;20.88;100.00
37610;BME280;23457;51.966;8.230;2023-07-29T00:55:12;100047.41;;;20.92;100.00
37610;BME280;23457;51.966;8.230;2023-07-29T00:57:39;100044.66;;;20.95;100.00
37610;BME280;23457;51.966;8.230;2023-07-29T01:00:07;100049.25;;;20.90;100.00
37610;BME280;23457;51.966;8.230;2023-07-29T01:02:35;100043.84;;;20.93;100.00
37610;BME280;23457;51.966;8.230;2023-07-29T01:05:02;100044.47;;;21.01;100.00
37610;BME280;23457;51.966;8.230;2023-07-29T01:07:39;100037.97;;;20.87;100.00
37610;BME280;23457;51.966;8.230;2023-07-29T01:12:56;100031.81;;;20.86;100.00
37610;BME280;23457;51.966;8.230;2023-07-29T01:15:36;100041.41;;;20.89;100.00
37610;BME280;23457;51.966;8.230;2023-07-29T01:18:23;100040.19;;;20.97;100.00
37610;BME280;23457;51.966;8.230;2023-07-29T01:20:53;100039.34;;;20.97;100.00
37610;BME280;23457;51.966;8.230;2023-07-29T01:23:29;100037.56;;;20.97;100.00
37610;BME280;23457;51.966;8.230;2023-07-29T01:25:57;100032.84;;;21.05;100.00
37610;BME280;23457;51.966;8.230;2023-07-29T01:28:24;100035.47;;;21.05;100.00
37610;BME280;23457;51.966;8.230;2023-07-29T01:31:10;100035.25;;;21.12;100.00
37610;BME280;23457;51.966;8.230;2023-07-29T01:33:43;100033.59;;;21.09;100.00
37610;BME280;23457;51.966;8.230;2023-07-29T01:36:16;100026.63;;;21.06;100.00
37610;BME280;23457;51.966;8.230;2023-07-29T01:38:47;100026.19;;;20.95;100.00
37610;BME280;23457;51.966;8.230;2023-07-29T01:41:14;100020.78;;;20.98;100.00
37610;BME280;23457;51.966;8.230;2023-07-29T01:43:42;100012.06;;;20.96;100.00
37610;BME280;23457;51.966;8.230;2023-07-29T01:46:14;100002.41;;;20.95;100.00
37610;BME280;23457;51.966;8.230;2023-07-29T01:48:41;100009.88;;;20.84;100.00
37610;BME280;23457;51.966;8.230;2023-07-29T01:51:11;100023.44;;;20.75;100.00
37610;BME280;23457;51.966;8.230;2023-07-29T01:53:38;100020.13;;;20.68;100.00
37610;BME280;23457;51.966;8.230;2023-07-29T01:56:05;100016.94;;;20.84;100.00
37610;BME280;23457;51.966;8.230;2023-07-29T01:58:33;100014.25;;;20.85;100.00
37610;BME280;23457;51.966;8.230;2023-07-29T02:01:00;100011.81;;;20.79;100.00
37610;BME280;23457;51.966;8.230;2023-07-29T02:03:26;100008.31;;;20.79;100.00
37610;BME280;23457;51.966;8.230;2023-07-29T02:05:53;100012.50;;;20.84;100.00
37610;BME280;23457;51.966;8.230;2023-07-29T02:08:20;100010.69;;;20.86;100.00
37610;BME280;23457;51.966;8.230;2023-07-29T02:10:46;100000.34;;;20.80;100.00
37610;BME280;23457;51.966;8.230;2023-07-29T02:13:15;99996.25;;;20.71;100.00
37610;BME280;23457;51.966;8.230;2023-07-29T02:15:42;99996.38;;;20.68;100.00
37610;BME280;23457;51.966;8.230;2023-07-29T02:18:08;100000.78;;;20.68;100.00
37610;BME280;23457;51.966;8.230;2023-07-29T02:20:35;99999.19;;;20.64;100.00
37610;BME280;23457;51.966;8.230;2023-07-29T02:23:02;99997.13;;;20.72;100.00
37610;BME280;23457;51.966;8.230;2023-07-29T02:25:29;99997.03;;;20.75;100.00
37610;BME280;23457;51.966;8.230;2023-07-29T02:27:55;99991.75;;;20.75;100.00
37610;BME280;23457;51.966;8.230;2023-07-29T02:30:22;99985.75;;;20.70;100.00
37610;BME280;23457;51.966;8.230;2023-07-29T02:32:49;99998.19;;;20.66;100.00
37610;BME280;23457;51.966;8.230;2023-07-29T02:35:15;100001.84;;;20.64;100.00
37610;BME280;23457;51.966;8.230;2023-07-29T02:37:42;99998.16;;;20.68;100.00
37610;BME280;23457;51.966;8.230;2023-07-29T02:40:09;99998.84;;;20.73;100.00
37610;BME280;23457;51.966;8.230;2023-07-29T02:42:36;99995.56;;;20.66;100.00
37610;BME280;23457;51.966;8.230;2023-07-29T02:45:03;100000.88;;;20.65;100.00
37610;BME280;23457;51.966;8.230;2023-07-29T02:47:30;100004.16;;;20.48;100.00
37610;BME280;23457;51.966;8.230;2023-07-29T02:49:57;100007.75;;;20.46;100.00
37610;BME280;23457;51.966;8.230;2023-07-29T02:52:24;100008.47;;;20.51;100.00
37610;BME280;23457;51.966;8.230;2023-07-29T02:54:50;100004.91;;;20.52;100.00
37610;BME280;23457;51.966;8.230;2023-07-29T02:57:17;100001.13;;;20.59;100.00
37610;BME280;23457;51.966;8.230;2023-07-29T02:59:44;99995.59;;;20.65;100.00
37610;BME280;23457;51.966;8.230;2023-07-29T03:02:11;99991.53;;;20.56;100.00
37610;BME280;23457;51.966;8.230;2023-07-29T03:04:37;99985.22;;;20.60;100.00
37610;BME280;23457;51.966;8.230;2023-07-29T03:07:04;99985.69;;;20.48;100.00
37610;BME280;23457;51.966;8.230;2023-07-29T03:09:31;99978.38;;;20.55;100.00
37610;BME280;23457;51.966;8.230;2023-07-29T03:11:57;99981.22;;;20.50;100.00
37610;BME280;23457;51.966;8.230;2023-07-29T03:14:25;99981.94;;;20.54;100.00
37610;BME280;23457;51.966;8.230;2023-07-29T03:16:52;99986.34;;;20.53;100.00
37610;BME280;23457;51.966;8.230;2023-07-29T03:19:18;99982.69;;;20.57;100.00
37610;BME280;23457;51.966;8.230;2023-07-29T03:21:46;99979.00;;;20.63;100.00
37610;BME280;23457;51.966;8.230;2023-07-29T03:24:13;99982.75;;;20.56;100.00
37610;BME280;23457;51.966;8.230;2023-07-29T03:26:40;99980.13;;;20.56;100.00
37610;BME280;23457;51.966;8.230;2023-07-29T03:29:09;99979.19;;;20.57;100.00
37610;BME280;23457;51.966;8.230;2023-07-29T03:31:36;99979.97;;;20.60;100.00
37610;BME280;23457;51.966;8.230;2023-07-29T03:34:02;99980.06;;;20.57;100.00
37610;BME280;23457;51.966;8.230;2023-07-29T03:36:29;99979.91;;;20.62;100.00
37610;BME280;23457;51.966;8.230;2023-07-29T03:38:56;99977.22;;;20.63;100.00
37610;BME280;23457;51.966;8.230;2023-07-29T03:41:23;99975.59;;;20.59;100.00
37610;BME280;23457;51.966;8.230;2023-07-29T03:43:49;99978.06;;;20.64;100.00
37610;BME280;23457;51.966;8.230;2023-07-29T03:46:16;99978.19;;;20.61;100.00
37610;BME280;23457;51.966;8.230;2023-07-29T03:48:46;99970.81;;;20.69;100.00
37610;BME280;23457;51.966;8.230;2023-07-29T03:51:13;99969.00;;;20.71;100.00
37610;BME280;23457;51.966;8.230;2023-07-29T03:53:40;99975.34;;;20.65;100.00
37610;BME280;23457;51.966;8.230;2023-07-29T03:56:07;99974.84;;;20.56;100.00
37610;BME280;23457;51.966;8.230;2023-07-29T03:58:34;99971.06;;;20.63;100.00
37610;BME280;23457;51.966;8.230;2023-07-29T04:01:01;99969.09;;;20.68;100.00
37610;BME280;23457;51.966;8.230;2023-07-29T04:03:27;99970.72;;;20.72;100.00
37610;BME280;23457;51.966;8.230;2023-07-29T04:05:55;99957.63;;;20.69;100.00
37610;BME280;23457;51.966;8.230;2023-07-29T04:08:22;99956.75;;;20.68;100.00
37610;BME280;23457;51.966;8.230;2023-07-29T04:10:48;99957.81;;;20.64;100.00
37610;BME280;23457;51.966;8.230;2023-07-29T04:13:15;99958.66;;;20.65;100.00
37610;BME280;23457;51.966;8.230;2023-07-29T04:15:42;99950.28;;;20.77;100.00
37610;BME280;23457;51.966;8.230;2023-07-29T04:18:09;99952.34;;;20.69;100.00
37610;BME280;23457;51.966;8.230;2023-07-29T04:20:36;99949.81;;;20.66;100.00
37610;BME280;23457;51.966;8.230;2023-07-29T04:23:03;99963.94;;;20.65;100.00
37610;BME280;23457;51.966;8.230;2023-07-29T04:25:29;99952.41;;;20.67;100.00
37610;BME280;23457;51.966;8.230;2023-07-29T04:27:56;99970.00;;;20.67;100.00
37610;BME280;23457;51.966;8.230;2023-07-29T04:30:24;99967.31;;;20.68;100.00
37610;BME280;23457;51.966;8.230;2023-07-29T04:32:50;99962.91;;;20.69;100.00
37610;BME280;23457;51.966;8.230;2023-07-29T04:35:17;99961.78;;;20.76;100.00
37610;BME280;23457;51.966;8.230;2023-07-29T04:37:44;99958.28;;;20.76;100.00
37610;BME280;23457;51.966;8.230;2023-07-29T04:40:11;99951.22;;;20.76;100.00
37610;BME280;23457;51.966;8.230;2023-07-29T04:42:37;99953.97;;;20.73;100.00
37610;BME280;23457;51.966;8.230;2023-07-29T04:45:04;99960.09;;;20.73;100.00
37610;BME280;23457;51.966;8.230;2023-07-29T04:47:32;99943.97;;;20.81;100.00
37610;BME280;23457;51.966;8.230;2023-07-29T04:49:58;99949.13;;;20.84;100.00
37610;BME280;23457;51.966;8.230;2023-07-29T04:52:25;99947.31;;;20.63;100.00
37610;BME280;23457;51.966;8.230;2023-07-29T04:54:52;99954.13;;;20.68;100.00
37610;BME280;23457;51.966;8.230;2023-07-29T04:57:18;99957.41;;;20.75;100.00
37610;BME280;23457;51.966;8.230;2023-07-29T04:59:45;99954.94;;;20.70;100.00
37610;BME280;23457;51.966;8.230;2023-07-29T05:02:11;99944.94;;;20.79;100.00
37610;BME280;23457;51.966;8.230;2023-07-29T05:04:38;99943.03;;;20.82;100.00
37610;BME280;23457;51.966;8.230;2023-07-29T05:07:05;99941.44;;;20.78;100.00
37610;BME280;23457;51.966;8.230;2023-07-29T05:09:32;99946.59;;;20.81;100.00
37610;BME280;23457;51.966;8.230;2023-07-29T05:11:58;99940.47;;;20.81;100.00
37610;BME280;23457;51.966;8.230;2023-07-29T05:14:25;99937.53;;;20.88;100.00
37610;BME280;23457;51.966;8.230;2023-07-29T05:16:53;99935.69;;;20.90;100.00
37610;BME280;23457;51.966;8.230;2023-07-29T05:19:20;99935.63;;;20.92;100.00
37610;BME280;23457;51.966;8.230;2023-07-29T05:21:46;99938.31;;;20.90;100.00
37610;BME280;23457;51.966;8.230;2023-07-29T05:24:13;99936.47;;;20.92;100.00
37610;BME280;23457;51.966;8.230;2023-07-29T05:26:40;99931.84;;;20.99;100.00
37610;BME280;23457;51.966;8.230;2023-07-29T05:29:06;99928.13;;;21.03;100.00
37610;BME280;23457;51.966;8.230;2023-07-29T05:31:33;99923.72;;;21.03;100.00
37610;BME280;23457;51.966;8.230;2023-07-29T05:34:00;99923.50;;;21.09;100.00
37610;BME280;23457;51.966;8.230;2023-07-29T05:36:27;99923.44;;;21.11;100.00
37610;BME280;23457;51.966;8.230;2023-07-29T05:38:53;99918.81;;;21.16;100.00
37610;BME280;23457;51.966;8.230;2023-07-29T05:41:20;99913.53;;;21.16;100.00
37610;BME280;23457;51.966;8.230;2023-07-29T05:43:47;99919.41;;;21.24;100.00
37610;BME280;23457;51.966;8.230;2023-07-29T05:46:15;99920.34;;;21.23;100.00
37610;BME280;23457;51.966;8.230;2023-07-29T05:48:42;99924.03;;;21.18;100.00
37610;BME280;23457;51.966;8.230;2023-07-29T05:51:09;99932.56;;;21.02;100.00
37610;BME280;23457;51.966;8.230;2023-07-29T05:53:35;99943.00;;;21.05;100.00
37610;BME280;23457;51.966;8.230;2023-07-29T05:56:02;99945.09;;;20.97;100.00
37610;BME280;23457;51.966;8.230;2023-07-29T05:58:29;99943.75;;;21.09;100.00
37610;BME280;23457;51.966;8.230;2023-07-29T06:00:57;99952.22;;;21.17;100.00
37610;BME280;23457;51.966;8.230;2023-07-29T06:03:24;99958.00;;;21.05;100.00
37610;BME280;23457;51.966;8.230;2023-07-29T06:05:51;99966.28;;;21.19;100.00
37610;BME280;23457;51.966;8.230;2023-07-29T06:08:20;99966.44;;;21.15;100.00
37610;BME280;23457;51.966;8.230;2023-07-29T06:10:47;99971.97;;;21.08;100.00
37610;BME280;23457;51.966;8.230;2023-07-29T06:13:13;99971.00;;;21.11;100.00
37610;BME280;23457;51.966;8.230;2023-07-29T06:15:40;99971.66;;;21.16;100.00
37610;BME280;23457;51.966;8.230;2023-07-29T06:18:07;99964.59;;;21.17;100.00
37610;BME280;23457;51.966;8.230;2023-07-29T06:20:33;99958.88;;;21.05;100.00
37610;BME280;23457;51.966;8.230;2023-07-29T06:23:00;99938.78;;;21.25;100.00
37610;BME280;23457;51.966;8.230;2023-07-29T06:25:28;99909.66;;;21.26;100.00
37610;BME280;23457;51.966;8.230;2023-07-29T06:27:54;99921.31;;;21.21;100.00
37610;BME280;23457;51.966;8.230;2023-07-29T06:30:21;99931.16;;;21.16;100.00
37610;BME280;23457;51.966;8.230;2023-07-29T06:32:48;99932.81;;;21.18;100.00
37610;BME280;23457;51.966;8.230;2023-07-29T06:35:14;99935.22;;;21.26;100.00
37610;BME280;23457;51.966;8.230;2023-07-29T06:37:41;99949.47;;;21.22;100.00
37610;BME280;23457;51.966;8.230;2023-07-29T06:40:08;99960.34;;;21.13;100.00
37610;BME280;23457;51.966;8.230;2023-07-29T06:42:35;99966.22;;;20.97;100.00
37610;BME280;23457;51.966;8.230;2023-07-29T06:45:04;99972.50;;;21.17;100.00
37610;BME280;23457;51.966;8.230;2023-07-29T06:47:31;99983.56;;;21.04;100.00
37610;BME280;23457;51.966;8.230;2023-07-29T06:49:58;99988.13;;;21.01;100.00
37610;BME280;23457;51.966;8.230;2023-07-29T06:52:25;99988.63;;;21.10;100.00
37610;BME280;23457;51.966;8.230;2023-07-29T06:54:51;99994.31;;;21.00;100.00
37610;BME280;23457;51.966;8.230;2023-07-29T06:57:18;99989.09;;;20.98;100.00
37610;BME280;23457;51.966;8.230;2023-07-29T06:59:45;99996.97;;;21.00;100.00
37610;BME280;23457;51.966;8.230;2023-07-29T07:02:11;100009.94;;;20.83;100.00
37610;BME280;23457;51.966;8.230;2023-07-29T07:04:38;100007.91;;;20.66;100.00
37610;BME280;23457;51.966;8.230;2023-07-29T07:07:05;100007.97;;;20.64;100.00
37610;BME280;23457;51.966;8.230;2023-07-29T07:09:31;100007.34;;;20.81;100.00
37610;BME280;23457;51.966;8.230;2023-07-29T07:11:58;100002.16;;;20.78;100.00
37610;BME280;23457;51.966;8.230;2023-07-29T07:14:24;100006.66;;;20.99;100.00
37610;BME280;23457;51.966;8.230;2023-07-29T07:16:52;99998.84;;;20.96;100.00
37610;BME280;23457;51.966;8.230;2023-07-29T07:19:18;100010.44;;;20.92;100.00
37610;BME280;23457;51.966;8.230;2023-07-29T07:21:45;100009.63;;;20.90;100.00
37610;BME280;23457;51.966;8.230;2023-07-29T07:24:12;100012.06;;;20.96;100.00
37610;BME280;23457;51.966;8.230;2023-07-29T07:26:38;100009.06;;;21.05;100.00
37610;BME280;23457;51.966;8.230;2023-07-29T07:29:05;100013.41;;;21.06;100.00
37610;BME280;23457;51.966;8.230;2023-07-29T07:31:35;100013.31;;;21.33;100.00
37610;BME280;23457;51.966;8.230;2023-07-29T07:34:02;100020.28;;;21.35;100.00
37610;BME280;23457;51.966;8.230;2023-07-29T07:36:29;100014.34;;;21.29;100.00
37610;BME280;23457;51.966;8.230;2023-07-29T07:38:56;100012.78;;;21.47;100.00
37610;BME280;23457;51.966;8.230;2023-07-29T07:41:23;100009.97;;;21.28;100.00
37610;BME280;23457;51.966;8.230;2023-07-29T07:43:50;100023.94;;;21.53;100.00
37610;BME280;23457;51.966;8.230;2023-07-29T07:46:17;100018.53;;;21.56;100.00
37610;BME280;23457;51.966;8.230;2023-07-29T07:48:43;100020.88;;;21.42;100.00
37610;BME280;23457;51.966;8.230;2023-07-29T07:51:13;100016.44;;;21.42;100.00
37610;BME280;23457;51.966;8.230;2023-07-29T07:53:40;100017.56;;;21.37;100.00
37610;BME280;23457;51.966;8.230;2023-07-29T07:56:07;100009.38;;;21.21;100.00
37610;BME280;23457;51.966;8.230;2023-07-29T07:58:34;100013.06;;;21.16;100.00
37610;BME280;23457;51.966;8.230;2023-07-29T08:01:06;100024.84;;;21.07;100.00
37610;BME280;23457;51.966;8.230;2023-07-29T08:03:34;100019.56;;;20.84;100.00
37610;BME280;23457;51.966;8.230;2023-07-29T08:06:02;100028.25;;;20.87;100.00
37610;BME280;23457;51.966;8.230;2023-07-29T08:08:29;100031.91;;;20.83;100.00
37610;BME280;23457;51.966;8.230;2023-07-29T08:10:56;100018.31;;;20.94;100.00
37610;BME280;23457;51.966;8.230;2023-07-29T08:13:24;100016.75;;;21.12;100.00
37610;BME280;23457;51.966;8.230;2023-07-29T08:15:52;100013.00;;;21.17;100.00
37610;BME280;23457;51.966;8.230;2023-07-29T08:18:19;100035.00;;;21.41;100.00
37610;BME280;23457;51.966;8.230;2023-07-29T08:20:57;100031.44;;;21.42;100.00
37610;BME280;23457;51.966;8.230;2023-07-29T08:23:33;100036.06;;;21.37;95.11
37610;BME280;23457;51.966;8.230;2023-07-29T08:26:02;100035.75;;;21.23;93.04
37610;BME280;23457;51.966;8.230;2023-07-29T08:28:31;100032.50;;;21.15;91.91
37610;BME280;23457;51.966;8.230;2023-07-29T08:30:59;100039.63;;;21.13;89.26
37610;BME280;23457;51.966;8.230;2023-07-29T08:33:26;100039.38;;;21.42;91.37
37610;BME280;23457;51.966;8.230;2023-07-29T08:35:53;100045.78;;;21.36;90.32
37610;BME280;23457;51.966;8.230;2023-07-29T08:38:20;100039.41;;;21.19;88.00
37610;BME280;23457;51.966;8.230;2023-07-29T08:41:04;100032.94;;;21.27;88.79
37610;BME280;23457;51.966;8.230;2023-07-29T08:43:32;100032.88;;;21.51;90.24
37610;BME280;23457;51.966;8.230;2023-07-29T08:46:00;100032.50;;;21.38;89.49
37610;BME280;23457;51.966;8.230;2023-07-29T08:48:40;100037.75;;;21.61;89.49
37610;BME280;23457;51.966;8.230;2023-07-29T08:51:08;100028.41;;;21.74;87.22
37610;BME280;23457;51.966;8.230;2023-07-29T08:53:36;100014.59;;;21.66;87.40
37610;BME280;23457;51.966;8.230;2023-07-29T08:56:03;100021.56;;;21.91;89.75
37610;BME280;23457;51.966;8.230;2023-07-29T08:58:32;100027.63;;;21.93;90.12
37610;BME280;23457;51.966;8.230;2023-07-29T09:00:59;100029.44;;;21.70;86.69
37610;BME280;23457;51.966;8.230;2023-07-29T09:03:26;100023.16;;;21.73;86.99
37610;BME280;23457;51.966;8.230;2023-07-29T09:05:53;100017.19;;;21.68;87.91
37610;BME280;23457;51.966;8.230;2023-07-29T09:08:21;100023.56;;;22.06;89.07
37610;BME280;23457;51.966;8.230;2023-07-29T09:10:48;100027.97;;;22.27;85.06
37610;BME280;23457;51.966;8.230;2023-07-29T09:13:15;100024.66;;;22.22;85.93
37610;BME280;23457;51.966;8.230;2023-07-29T09:15:41;100033.91;;;22.32;86.43
37610;BME280;23457;51.966;8.230;2023-07-29T09:18:10;100038.97;;;22.38;84.08
37610;BME280;23457;51.966;8.230;2023-07-29T09:20:37;100040.53;;;22.42;84.44
37610;BME280;23457;51.966;8.230;2023-07-29T09:23:07;100036.69;;;22.29;84.05
37610;BME280;23457;51.966;8.230;2023-07-29T09:25:35;100037.91;;;22.22;86.34
37610;BME280;23457;51.966;8.230;2023-07-29T09:28:14;100037.88;;;22.42;86.15
37610;BME280;23457;51.966;8.230;2023-07-29T09:30:42;100035.50;;;22.57;87.22
37610;BME280;23457;51.966;8.230;2023-07-29T09:33:09;100037.91;;;22.63;85.58
37610;BME280;23457;51.966;8.230;2023-07-29T09:35:37;100035.38;;;22.80;82.38
37610;BME280;23457;51.966;8.230;2023-07-29T09:38:05;100047.94;;;22.95;83.19
37610;BME280;23457;51.966;8.230;2023-07-29T09:40:36;100043.09;;;23.05;81.43
37610;BME280;23457;51.966;8.230;2023-07-29T09:43:04;100047.25;;;23.10;84.58
37610;BME280;23457;51.966;8.230;2023-07-29T09:45:33;100046.81;;;23.38;81.85
37610;BME280;23457;51.966;8.230;2023-07-29T09:48:01;100030.50;;;23.29;82.66
37610;BME280;23457;51.966;8.230;2023-07-29T09:50:29;100028.56;;;23.51;80.58
37610;BME280;23457;51.966;8.230;2023-07-29T09:52:56;100035.88;;;23.65;80.82
37610;BME280;23457;51.966;8.230;2023-07-29T09:55:27;100030.41;;;23.68;79.44
37610;BME280;23457;51.966;8.230;2023-07-29T09:57:58;100040.72;;;23.36;77.96
37610;BME280;23457;51.966;8.230;2023-07-29T10:00:28;100023.03;;;23.37;75.85
37610;BME280;23457;51.966;8.230;2023-07-29T10:02:55;100029.69;;;23.27;77.73
37610;BME280;23457;51.966;8.230;2023-07-29T10:05:22;100032.13;;;23.12;77.24
37610;BME280;23457;51.966;8.230;2023-07-29T10:07:53;100022.75;;;23.43;77.72
37610;BME280;23457;51.966;8.230;2023-07-29T10:10:21;100022.19;;;23.55;75.99
37610;BME280;23457;51.966;8.230;2023-07-29T10:12:47;100024.31;;;23.66;75.80
37610;BME280;23457;51.966;8.230;2023-07-29T10:15:14;100028.91;;;23.62;77.72
37610;BME280;23457;51.966;8.230;2023-07-29T10:17:41;100028.34;;;23.55;77.07
37610;BME280;23457;51.966;8.230;2023-07-29T10:20:10;100038.81;;;23.40;78.74
37610;BME280;23457;51.966;8.230;2023-07-29T10:22:39;100032.19;;;23.48;76.60
37610;BME280;23457;51.966;8.230;2023-07-29T10:25:15;100034.72;;;23.87;75.41
37610;BME280;23457;51.966;8.230;2023-07-29T10:27:45;100031.50;;;24.17;74.53
37610;BME280;23457;51.966;8.230;2023-07-29T10:30:13;100040.03;;;24.23;77.75
37610;BME280;23457;51.966;8.230;2023-07-29T10:32:44;100041.06;;;24.19;78.39
37610;BME280;23457;51.966;8.230;2023-07-29T10:35:13;100044.69;;;24.18;74.92
37610;BME280;23457;51.966;8.230;2023-07-29T10:37:40;100039.66;;;23.59;74.04
37610;BME280;23457;51.966;8.230;2023-07-29T10:40:10;100036.13;;;23.77;75.18
37610;BME280;23457;51.966;8.230;2023-07-29T10:42:38;100027.56;;;23.89;76.11
37610;BME280;23457;51.966;8.230;2023-07-29T10:45:18;100037.66;;;23.64;73.26
37610;BME280;23457;51.966;8.230;2023-07-29T10:47:45;100018.47;;;23.76;74.18
37610;BME280;23457;51.966;8.230;2023-07-29T10:50:21;100026.31;;;23.61;72.29
37610;BME280;23457;51.966;8.230;2023-07-29T10:52:52;100032.69;;;23.75;75.13
37610;BME280;23457;51.966;8.230;2023-07-29T10:55:25;100027.88;;;24.01;71.51
37610;BME280;23457;51.966;8.230;2023-07-29T10:57:54;100035.16;;;24.49;72.50
37610;BME280;23457;51.966;8.230;2023-07-29T11:00:31;100039.47;;;24.69;71.18
37610;BME280;23457;51.966;8.230;2023-07-29T11:03:00;100037.19;;;24.61;68.91
37610;BME280;23457;51.966;8.230;2023-07-29T11:05:48;100031.72;;;24.64;72.32
37610;BME280;23457;51.966;8.230;2023-07-29T11:08:37;100040.38;;;24.68;71.99
37610;BME280;23457;51.966;8.230;2023-07-29T11:11:11;100026.72;;;24.91;69.74
37610;BME280;23457;51.966;8.230;2023-07-29T11:13:38;100034.94;;;24.53;68.11
37610;BME280;23457;51.966;8.230;2023-07-29T11:16:05;100029.63;;;24.19;69.25
37610;BME280;23457;51.966;8.230;2023-07-29T11:18:34;100019.94;;;24.52;70.87
37610;BME280;23457;51.966;8.230;2023-07-29T11:21:04;100014.38;;;24.90;68.71
37610;BME280;23457;51.966;8.230;2023-07-29T11:23:35;100009.81;;;25.41;67.56
37610;BME280;23457;51.966;8.230;2023-07-29T11:26:03;100020.97;;;25.47;68.88
37610;BME280;23457;51.966;8.230;2023-07-29T11:28:30;100008.72;;;25.45;65.53
37610;BME280;23457;51.966;8.230;2023-07-29T11:30:57;100002.94;;;25.37;66.88
37610;BME280;23457;51.966;8.230;2023-07-29T11:33:25;100000.28;;;25.37;67.61
37610;BME280;23457;51.966;8.230;2023-07-29T11:35:55;100003.72;;;25.39;67.73
37610;BME280;23457;51.966;8.230;2023-07-29T11:38:22;99998.22;;;24.94;67.19
37610;BME280;23457;51.966;8.230;2023-07-29T11:41:19;100005.66;;;24.71;67.73
37610;BME280;23457;51.966;8.230;2023-07-29T11:43:45;100005.78;;;25.18;68.20
37610;BME280;23457;51.966;8.230;2023-07-29T11:46:12;100001.16;;;25.53;65.44
37610;BME280;23457;51.966;8.230;2023-07-29T11:48:39;100007.16;;;25.41;66.59
37610;BME280;23457;51.966;8.230;2023-07-29T11:51:06;100013.84;;;25.79;68.52
37610;BME280;23457;51.966;8.230;2023-07-29T11:53:33;100005.34;;;26.18;72.07
37610;BME280;23457;51.966;8.230;2023-07-29T11:56:00;100006.03;;;25.92;63.43
37610;BME280;23457;51.966;8.230;2023-07-29T11:58:26;99996.88;;;25.66;64.96
37610;BME280;23457;51.966;8.230;2023-07-29T12:00:53;99999.59;;;25.96;67.81
37610;BME280;23457;51.966;8.230;2023-07-29T12:03:20;100006.34;;;26.31;65.20
37610;BME280;23457;51.966;8.230;2023-07-29T12:05:48;100005.13;;;26.07;64.75
37610;BME280;23457;51.966;8.230;2023-07-29T12:08:15;100011.25;;;25.93;65.27
37610;BME280;23457;51.966;8.230;2023-07-29T12:10:42;100008.53;;;25.79;62.54
37610;BME280;23457;51.966;8.230;2023-07-29T12:13:09;100012.66;;;25.38;65.28
37610;BME280;23457;51.966;8.230;2023-07-29T12:15:37;100015.06;;;25.42;68.17
37610;BME280;23457;51.966;8.230;2023-07-29T12:18:05;100012.66;;;25.38;68.66
37610;BME280;23457;51.966;8.230;2023-07-29T12:20:32;100014.72;;;25.80;64.34
37610;BME280;23457;51.966;8.230;2023-07-29T12:22:59;100010.44;;;26.07;64.77
37610;BME280;23457;51.966;8.230;2023-07-29T12:25:29;100013.91;;;25.93;68.28
37610;BME280;23457;51.966;8.230;2023-07-29T12:27:56;100019.00;;;25.82;63.98
37610;BME280;23457;51.966;8.230;2023-07-29T12:30:28;100010.00;;;25.53;65.28
37610;BME280;23457;51.966;8.230;2023-07-29T12:32:54;100015.22;;;25.23;66.24
37610;BME280;23457;51.966;8.230;2023-07-29T12:35:21;100023.88;;;25.11;68.57
37610;BME280;23457;51.966;8.230;2023-07-29T12:37:58;100022.50;;;25.04;67.06
37610;BME280;23457;51.966;8.230;2023-07-29T12:40:25;100025.94;;;24.89;66.38
37610;BME280;23457;51.966;8.230;2023-07-29T12:42:53;100016.25;;;25.05;68.50
37610;BME280;23457;51.966;8.230;2023-07-29T12:45:19;100015.41;;;25.52;65.92
37610;BME280;23457;51.966;8.230;2023-07-29T12:47:49;100005.84;;;25.95;65.83
37610;BME280;23457;51.966;8.230;2023-07-29T12:50:16;100011.03;;;26.12;66.26
37610;BME280;23457;51.966;8.230;2023-07-29T12:52:42;100002.81;;;26.01;68.27
37610;BME280;23457;51.966;8.230;2023-07-29T12:55:09;100001.81;;;26.76;65.31